| time (UTC) | temp C | wind direction | speed KPH | gust KPH | rain 1hr cm | rain 24hr cm | rain mn cm | humidity % | barometer mb |
| 20260508023538 | -17 | 225 | 0.0 | 1.6 | 0.00 | 0.00 | 0.00 | 100 | |
| 20260508021733 | -17 | 161 | 0.0 | 1.6 | 0.00 | 0.00 | 0.00 | 100 | |
| 20260508015821 | -17 | 90 | 0.0 | 1.6 | 0.00 | 0.00 | 0.00 | 100 | |
| 20260508014113 | -17 | 142 | 0.0 | 1.6 | 0.00 | 0.00 | 0.00 | 100 | |
| 20260508012333 | -17 | 203 | 0.0 | 1.6 | 0.00 | 0.00 | 0.00 | 100 | |
| 20260508010458 | -17 | 191 | 0.0 | 1.6 | 0.00 | 0.00 | 0.00 | 100 | |
| 20260508004543 | -17 | 233 | 0.0 | 1.6 | 0.00 | 0.00 | 0.00 | 100 | |
| 20260508002846 | -17 | 233 | 1.6 | 1.6 | 0.00 | 0.00 | 0.00 | 100 | |
| 20260508001138 | -17 | 315 | 0.0 | 1.6 | 0.00 | 0.00 | 0.00 | 100 | |
| 20260507235453 | -17 | 254 | 1.6 | 4.8 | 0.00 | 0.00 | 0.00 | 100 | |
| 20260507233606 | -17 | 270 | 0.0 | 1.6 | 0.00 | 0.00 | 0.00 | 100 | |
| 20260507231941 | -17 | 270 | 1.6 | 6.4 | 0.00 | 0.00 | 0.00 | 100 | |
| 20260507230043 | -17 | 270 | 1.6 | 4.8 | 0.00 | 0.00 | 0.00 | 100 | |
| 20260507224403 | -17 | 233 | 1.6 | 6.4 | 0.00 | 0.00 | 0.00 | 100 | |
| 20260507222723 | -17 | 225 | 1.6 | 4.8 | 0.00 | 0.00 | 0.00 | 100 | |
| 20260507221038 | -17 | 234 | 4.8 | 9.7 | 0.00 | 0.00 | 0.00 | 100 | |
| 20260507215113 | -17 | 325 | 1.6 | 6.4 | 0.00 | 0.00 | 0.00 | 100 | |
| 20260507213513 | -17 | 237 | 1.6 | 3.2 | 0.00 | 0.00 | 0.00 | 100 | |
| 20260507211633 | -17 | 286 | 1.6 | 3.2 | 0.00 | 0.00 | 0.00 | 100 | |
| 20260507205953 | -17 | 233 | 1.6 | 4.8 | 0.00 | 0.00 | 0.00 | 100 | |
| 20260507204058 | -17 | 339 | 1.6 | 9.7 | 0.00 | 0.00 | 0.00 | 100 | |
| 20260507202448 | -17 | 329 | 1.6 | 4.8 | 0.00 | 0.00 | 0.00 | 100 | |
| 20260507200718 | -17 | 239 | 1.6 | 4.8 | 0.00 | 0.00 | 0.00 | 100 | |
| 20260507194749 | -17 | 285 | 1.6 | 9.7 | 0.00 | 0.00 | 0.00 | 100 | |
| 20260507192928 | -17 | 232 | 1.6 | 6.4 | 0.00 | 0.00 | 0.00 | 100 | |
| 20260507190946 | -17 | 225 | 1.6 | 6.4 | 0.00 | 0.00 | 0.00 | 100 | |
| 20260507185138 | -17 | 219 | 3.2 | 9.7 | 0.00 | 0.00 | 0.00 | 100 | |
| 20260507183213 | -17 | 285 | 1.6 | 6.4 | 0.00 | 0.00 | 0.00 | 100 | |
| 20260507181322 | -17 | 310 | 3.2 | 11.3 | 0.00 | 0.00 | 0.00 | 100 | |
| 20260507175638 | -17 | 293 | 1.6 | 3.2 | 0.00 | 0.00 | 0.00 | 100 | |
| 20260507173758 | -17 | 270 | 1.6 | 6.4 | 0.00 | 0.00 | 0.00 | 100 | |
| 20260507172158 | -17 | 281 | 1.6 | 6.4 | 0.00 | 0.00 | 0.00 | 100 | |
| 20260507170543 | -17 | 285 | 1.6 | 6.4 | 0.00 | 0.00 | 0.00 | 100 | |
| 20260507164858 | -17 | 251 | 1.6 | 4.8 | 0.00 | 0.00 | 0.00 | 100 | |
| 20260507163126 | -17 | 270 | 1.6 | 6.4 | 0.00 | 0.00 | 0.00 | 100 | |
| 20260507161318 | -17 | 306 | 1.6 | 8.0 | 0.00 | 0.00 | 0.00 | 100 | |
| 20260507155517 | -17 | 270 | 1.6 | 6.4 | 0.00 | 0.00 | 0.00 | 100 | |
| 20260507153923 | -17 | 256 | 1.6 | 6.4 | 0.00 | 0.00 | 0.00 | 100 | |
| 20260507152326 | -17 | 259 | 1.6 | 6.4 | 0.00 | 0.00 | 0.00 | 100 | |
| 20260507150603 | -17 | 240 | 1.6 | 6.4 | 0.00 | 0.00 | 0.00 | 100 | |
| 20260507144846 | -17 | 229 | 3.2 | 6.4 | 0.00 | 0.00 | 0.00 | 100 | |
| 20260507142946 | -17 | 221 | 1.6 | 8.0 | 0.00 | 0.00 | 0.00 | 100 | |
| 20260507140953 | -17 | 244 | 1.6 | 4.8 | 0.00 | 0.00 | 0.00 | 100 | |
| 20260507135038 | -17 | 270 | 1.6 | 4.8 | 0.00 | 0.00 | 0.00 | 100 | |
| 20260507133118 | -17 | 270 | 4.8 | 6.4 | 0.00 | 0.00 | 0.00 | 100 | |
| 20260507131418 | -17 | 270 | 3.2 | 6.4 | 0.00 | 0.00 | 0.00 | 100 | |
| 20260507125700 | -17 | 247 | 1.6 | 4.8 | 0.00 | 0.00 | 0.00 | 100 | |
| 20260507123912 | -17 | 270 | 0.0 | 1.6 | 0.00 | 0.00 | 0.00 | 100 | |
| 20260507122203 | -17 | 270 | 1.6 | 3.2 | 0.00 | 0.00 | 0.00 | 100 | |
| 20260507120246 | -17 | 270 | 1.6 | 3.2 | 0.00 | 0.00 | 0.00 | 100 | |
| 20260507114453 | -17 | 249 | 1.6 | 4.8 | 0.00 | 0.00 | 0.00 | 100 | |
| 20260507112826 | -17 | 248 | 1.6 | 4.8 | 0.00 | 0.00 | 0.00 | 100 | |
| 20260507111226 | -17 | 244 | 1.6 | 4.8 | 0.00 | 0.00 | 0.00 | 100 | |
| 20260507105533 | -17 | 270 | 1.6 | 1.6 | 0.00 | 0.00 | 0.00 | 100 | |
| 20260507103833 | -17 | 270 | 0.0 | 1.6 | 0.00 | 0.00 | 0.00 | 100 | |
| 20260507102133 | -17 | 270 | 0.0 | 1.6 | 0.00 | 0.00 | 0.00 | 100 | |
| 20260507100443 | -17 | 270 | 0.0 | 1.6 | 0.00 | 0.00 | 0.00 | 100 | |
| 20260507094813 | -17 | 252 | 1.6 | 4.8 | 0.00 | 0.00 | 0.00 | 100 | |
| 20260507093110 | -17 | 257 | 1.6 | 3.2 | 0.00 | 0.00 | 0.00 | 100 | |
| 20260507091335 | -17 | 270 | 1.6 | 3.2 | 0.00 | 0.00 | 0.00 | 100 | |
| 20260507085738 | -17 | 270 | 0.0 | 1.6 | 0.00 | 0.00 | 0.00 | 100 | |
| 20260507083913 | -17 | 311 | 0.0 | 1.6 | 0.00 | 0.00 | 0.00 | 100 | |
| 20260507082148 | -17 | 270 | 0.0 | 1.6 | 0.00 | 0.00 | 0.00 | 100 | |
| 20260507080233 | -17 | 270 | 0.0 | 1.6 | 0.00 | 0.00 | 0.00 | 100 | |
| 20260507074608 | -17 | 270 | 0.0 | 1.6 | 0.00 | 0.00 | 0.00 | 100 | |
| 20260507072646 | -17 | 270 | 0.0 | 1.6 | 0.00 | 0.00 | 0.00 | 100 | |
| 20260507070653 | -17 | 270 | 0.0 | 1.6 | 0.00 | 0.00 | 0.00 | 100 | |
| 20260507064758 | -17 | 270 | 1.6 | 1.6 | 0.00 | 0.00 | 0.00 | 100 | |
| 20260507062840 | -17 | 270 | 0.0 | 1.6 | 0.00 | 0.00 | 0.00 | 100 | |
| 20260507060916 | -17 | 270 | 0.0 | 1.6 | 0.00 | 0.00 | 0.00 | 100 | |
| 20260507055023 | -17 | 306 | 0.0 | 1.6 | 0.00 | 0.00 | 0.00 | 100 | |
| 20260507053331 | -17 | 315 | 0.0 | 1.6 | 0.00 | 0.00 | 0.00 | 100 | |
| 20260507051434 | -17 | 311 | 0.0 | 1.6 | 0.00 | 0.00 | 0.00 | 100 | |
| 20260507045816 | -17 | 270 | 0.0 | 1.6 | 0.00 | 0.00 | 0.00 | 100 | |
| 20260507043853 | -17 | 270 | 0.0 | 1.6 | 0.00 | 0.00 | 0.00 | 100 | |
| 20260507042018 | -17 | 270 | 0.0 | 1.6 | 0.00 | 0.00 | 0.00 | 100 | |
| 20260507040146 | -17 | 270 | 0.0 | 3.2 | 0.00 | 0.00 | 0.00 | 100 | |
| 20260507034334 | -17 | 270 | 1.6 | 1.6 | 0.00 | 0.00 | 0.00 | 100 | |
| 20260507032418 | -17 | 270 | 1.6 | 3.2 | 0.00 | 0.00 | 0.00 | 100 | |
| 20260507030713 | -17 | 270 | 0.0 | 1.6 | 0.00 | 0.00 | 0.00 | 100 | |
| 20260507025103 | -17 | 246 | 1.6 | 4.8 | 0.00 | 0.00 | 0.00 | 100 |